N664NG KPRX-KGPM
Flight info
| Callsign | N664NG |
|---|---|
| Flight time | 0h 36m |
| Altitude | 20000 |
| Route | PRX SASIE8 |
| Aircraft | PC12/L-VGD/A |
Departure
| Time | 2026-05-07 00:56 |
|---|---|
| Airport | Cox Field (KPRX) |
Arrival
| Time | 2026-05-07 01:32 |
|---|---|
| Airport | Grand Prairie Municipal Airport (KGPM) |
| Time | Latitude | Longitude | Altitude | Speed | Heading |
|---|---|---|---|---|---|
| 2026-05-07 00:45 | 33.63733 | -95.45636 | 527 ft | 0 kts | 0° |
| 2026-05-07 00:52 | 33.63734 | -95.45636 | 527 ft | 1 kts | 0° |
| 2026-05-07 00:53 | 33.63745 | -95.45618 | 528 ft | 3 kts | 106° |
| 2026-05-07 00:53 | 33.63698 | -95.45602 | 527 ft | 11 kts | 179° |
| 2026-05-07 00:53 | 33.63599 | -95.45601 | 527 ft | 15 kts | 179° |
| 2026-05-07 00:53 | 33.63481 | -95.45599 | 526 ft | 17 kts | 178° |
| 2026-05-07 00:54 | 33.63359 | -95.45597 | 524 ft | 15 kts | 179° |
| 2026-05-07 00:54 | 33.63256 | -95.45595 | 523 ft | 14 kts | 180° |
| 2026-05-07 00:54 | 33.63166 | -95.45548 | 524 ft | 14 kts | 143° |
| 2026-05-07 00:54 | 33.63090 | -95.45479 | 523 ft | 14 kts | 142° |
| 2026-05-07 00:55 | 33.63066 | -95.45420 | 524 ft | 10 kts | 18° |
| 2026-05-07 00:55 | 33.63340 | -95.45424 | 527 ft | 74 kts | 360° |
| 2026-05-07 00:55 | 33.63919 | -95.45431 | 764 ft | 88 kts | 1° |
| 2026-05-07 00:55 | 33.64538 | -95.45432 | 1138 ft | 91 kts | 2° |
| 2026-05-07 00:56 | 33.65170 | -95.45431 | 1525 ft | 97 kts | 1° |
| 2026-05-07 00:56 | 33.65904 | -95.45389 | 1806 ft | 114 kts | 18° |
| 2026-05-07 00:56 | 33.66502 | -95.44724 | 2117 ft | 131 kts | 63° |
| 2026-05-07 00:56 | 33.66691 | -95.43579 | 2432 ft | 147 kts | 79° |
| 2026-05-07 00:57 | 33.66539 | -95.42366 | 2858 ft | 156 kts | 116° |
| 2026-05-07 00:57 | 33.65674 | -95.41558 | 3281 ft | 166 kts | 161° |
| 2026-05-07 00:57 | 33.64531 | -95.41491 | 3740 ft | 165 kts | 185° |
| 2026-05-07 00:57 | 33.63399 | -95.41746 | 4187 ft | 164 kts | 195° |
| 2026-05-07 00:58 | 33.62319 | -95.42100 | 4624 ft | 162 kts | 198° |
| 2026-05-07 00:58 | 33.61248 | -95.42477 | 5047 ft | 160 kts | 199° |
| 2026-05-07 00:58 | 33.60189 | -95.42847 | 5466 ft | 159 kts | 199° |
| 2026-05-07 00:58 | 33.59127 | -95.43211 | 5873 ft | 157 kts | 199° |
| 2026-05-07 00:59 | 33.57043 | -95.43905 | 6618 ft | 155 kts | 200° |
| 2026-05-07 00:59 | 33.56002 | -95.44250 | 6944 ft | 156 kts | 202° |
| 2026-05-07 00:59 | 33.55086 | -95.44856 | 7294 ft | 150 kts | 225° |
| 2026-05-07 01:00 | 33.54467 | -95.45832 | 7627 ft | 146 kts | 246° |
| 2026-05-07 01:00 | 33.54234 | -95.46992 | 7962 ft | 145 kts | 264° |
| 2026-05-07 01:00 | 33.54198 | -95.48202 | 8277 ft | 145 kts | 267° |
| 2026-05-07 01:00 | 33.54195 | -95.49410 | 8579 ft | 145 kts | 268° |
| 2026-05-07 01:01 | 33.54201 | -95.50626 | 8881 ft | 145 kts | 268° |
| 2026-05-07 01:01 | 33.54206 | -95.51829 | 9178 ft | 145 kts | 267° |
| 2026-05-07 01:01 | 33.54205 | -95.53022 | 9503 ft | 142 kts | 267° |
| 2026-05-07 01:01 | 33.54204 | -95.54198 | 9752 ft | 143 kts | 267° |
| 2026-05-07 01:02 | 33.54199 | -95.55415 | 9946 ft | 148 kts | 267° |
| 2026-05-07 01:02 | 33.54193 | -95.56696 | 9961 ft | 161 kts | 266° |
| 2026-05-07 01:02 | 33.54186 | -95.58087 | 9957 ft | 172 kts | 267° |
| 2026-05-07 01:02 | 33.54179 | -95.59563 | 9962 ft | 180 kts | 267° |
| 2026-05-07 01:03 | 33.54172 | -95.61075 | 9960 ft | 187 kts | 267° |
| 2026-05-07 01:03 | 33.54163 | -95.62672 | 9962 ft | 193 kts | 268° |
| 2026-05-07 01:03 | 33.54155 | -95.64291 | 9959 ft | 198 kts | 268° |
| 2026-05-07 01:03 | 33.54148 | -95.65963 | 9962 ft | 202 kts | 268° |
| 2026-05-07 01:04 | 33.54140 | -95.67670 | 9962 ft | 205 kts | 267° |
| 2026-05-07 01:04 | 33.54133 | -95.69388 | 9962 ft | 208 kts | 268° |
| 2026-05-07 01:04 | 33.54126 | -95.71118 | 9963 ft | 209 kts | 267° |
| 2026-05-07 01:04 | 33.54116 | -95.72870 | 9956 ft | 211 kts | 267° |
| 2026-05-07 01:05 | 33.54108 | -95.74621 | 9959 ft | 212 kts | 268° |
| 2026-05-07 01:05 | 33.54097 | -95.76404 | 9958 ft | 212 kts | 267° |
| 2026-05-07 01:05 | 33.54088 | -95.78151 | 9958 ft | 212 kts | 267° |
| 2026-05-07 01:05 | 33.54079 | -95.79913 | 9958 ft | 212 kts | 267° |
| 2026-05-07 01:06 | 33.54069 | -95.81692 | 9958 ft | 212 kts | 267° |
| 2026-05-07 01:06 | 33.54059 | -95.83453 | 9957 ft | 212 kts | 267° |
| 2026-05-07 01:06 | 33.54047 | -95.85217 | 9957 ft | 212 kts | 267° |
| 2026-05-07 01:06 | 33.54034 | -95.86987 | 9956 ft | 212 kts | 268° |
| 2026-05-07 01:07 | 33.54024 | -95.88746 | 9958 ft | 212 kts | 267° |
| 2026-05-07 01:07 | 33.54013 | -95.90505 | 9959 ft | 212 kts | 268° |
| 2026-05-07 01:07 | 33.54000 | -95.92263 | 9961 ft | 212 kts | 267° |
| 2026-05-07 01:07 | 33.53988 | -95.94016 | 9960 ft | 211 kts | 267° |
| 2026-05-07 01:08 | 33.53976 | -95.95783 | 9960 ft | 211 kts | 268° |
| 2026-05-07 01:08 | 33.53963 | -95.97549 | 9960 ft | 211 kts | 267° |
| 2026-05-07 01:08 | 33.53950 | -95.99301 | 9962 ft | 211 kts | 268° |
| 2026-05-07 01:08 | 33.53936 | -96.01051 | 9960 ft | 211 kts | 267° |
| 2026-05-07 01:09 | 33.53923 | -96.02800 | 9962 ft | 211 kts | 267° |
| 2026-05-07 01:09 | 33.53910 | -96.04560 | 9962 ft | 211 kts | 268° |
| 2026-05-07 01:09 | 33.53896 | -96.06325 | 9965 ft | 211 kts | 268° |
| 2026-05-07 01:09 | 33.53882 | -96.08083 | 9966 ft | 211 kts | 268° |
| 2026-05-07 01:10 | 33.53867 | -96.09841 | 9966 ft | 211 kts | 268° |
| 2026-05-07 01:10 | 33.53853 | -96.11598 | 9967 ft | 211 kts | 268° |
| 2026-05-07 01:10 | 33.53838 | -96.13357 | 9969 ft | 211 kts | 268° |
| 2026-05-07 01:10 | 33.53823 | -96.15118 | 9968 ft | 211 kts | 267° |
| 2026-05-07 01:11 | 33.53807 | -96.16855 | 9965 ft | 211 kts | 267° |
| 2026-05-07 01:11 | 33.53792 | -96.18636 | 9966 ft | 211 kts | 268° |
| 2026-05-07 01:11 | 33.53777 | -96.20395 | 9968 ft | 211 kts | 268° |
| 2026-05-07 01:11 | 33.53759 | -96.22153 | 9956 ft | 211 kts | 267° |
| 2026-05-07 01:12 | 33.53591 | -96.23924 | 9723 ft | 216 kts | 259° |
| 2026-05-07 01:12 | 33.53212 | -96.25665 | 9480 ft | 217 kts | 255° |
| 2026-05-07 01:12 | 33.52807 | -96.27397 | 9236 ft | 218 kts | 254° |
| 2026-05-07 01:12 | 33.52383 | -96.29153 | 8987 ft | 219 kts | 254° |
| 2026-05-07 01:13 | 33.51962 | -96.30895 | 8742 ft | 220 kts | 255° |
| 2026-05-07 01:13 | 33.51531 | -96.32675 | 8496 ft | 222 kts | 255° |
| 2026-05-07 01:13 | 33.51140 | -96.34293 | 8271 ft | 222 kts | 254° |
| 2026-05-07 01:13 | 33.50712 | -96.36072 | 8020 ft | 224 kts | 255° |
| 2026-05-07 01:14 | 33.50281 | -96.37860 | 7772 ft | 225 kts | 255° |
| 2026-05-07 01:14 | 33.49844 | -96.39675 | 7522 ft | 226 kts | 255° |
| 2026-05-07 01:14 | 33.49410 | -96.41482 | 7277 ft | 227 kts | 255° |
| 2026-05-07 01:14 | 33.48971 | -96.43301 | 7030 ft | 229 kts | 255° |
| 2026-05-07 01:15 | 33.48528 | -96.45140 | 6782 ft | 230 kts | 255° |
| 2026-05-07 01:15 | 33.48080 | -96.46990 | 6531 ft | 232 kts | 255° |
| 2026-05-07 01:15 | 33.47637 | -96.48829 | 6285 ft | 233 kts | 255° |
| 2026-05-07 01:15 | 33.47181 | -96.50714 | 6040 ft | 234 kts | 255° |
| 2026-05-07 01:16 | 33.46738 | -96.52555 | 5975 ft | 228 kts | 255° |
| 2026-05-07 01:16 | 33.46191 | -96.54300 | 5973 ft | 224 kts | 238° |
| 2026-05-07 01:16 | 33.44953 | -96.55432 | 5986 ft | 224 kts | 212° |
| 2026-05-07 01:16 | 33.43577 | -96.56297 | 5977 ft | 222 kts | 208° |
| 2026-05-07 01:17 | 33.42176 | -96.57059 | 5975 ft | 220 kts | 206° |
| 2026-05-07 01:17 | 33.40772 | -96.57783 | 5974 ft | 219 kts | 206° |
| 2026-05-07 01:17 | 33.39387 | -96.58491 | 5973 ft | 218 kts | 206° |
| 2026-05-07 01:17 | 33.37994 | -96.59208 | 5971 ft | 217 kts | 207° |
| 2026-05-07 01:18 | 33.36594 | -96.59937 | 5972 ft | 216 kts | 206° |
| 2026-05-07 01:18 | 33.35229 | -96.60655 | 5972 ft | 216 kts | 207° |
| 2026-05-07 01:18 | 33.33852 | -96.61386 | 5971 ft | 216 kts | 207° |
| 2026-05-07 01:18 | 33.32487 | -96.62114 | 5972 ft | 215 kts | 207° |
| 2026-05-07 01:19 | 33.31114 | -96.62849 | 5974 ft | 215 kts | 207° |
| 2026-05-07 01:19 | 33.29751 | -96.63578 | 5973 ft | 215 kts | 207° |
| 2026-05-07 01:19 | 33.28378 | -96.64314 | 5974 ft | 215 kts | 207° |
| 2026-05-07 01:19 | 33.27000 | -96.65051 | 5963 ft | 215 kts | 206° |
| 2026-05-07 01:20 | 33.25643 | -96.65778 | 5971 ft | 215 kts | 207° |
| 2026-05-07 01:20 | 33.24268 | -96.66520 | 5975 ft | 215 kts | 206° |
| 2026-05-07 01:20 | 33.22899 | -96.67252 | 5971 ft | 214 kts | 207° |
| 2026-05-07 01:20 | 33.21552 | -96.67974 | 5971 ft | 214 kts | 207° |
| 2026-05-07 01:21 | 33.20184 | -96.68701 | 5972 ft | 214 kts | 206° |
| 2026-05-07 01:21 | 33.18805 | -96.69437 | 5975 ft | 215 kts | 206° |
| 2026-05-07 01:21 | 33.17450 | -96.70161 | 5972 ft | 215 kts | 207° |
| 2026-05-07 01:21 | 33.16073 | -96.70897 | 5970 ft | 215 kts | 206° |
| 2026-05-07 01:22 | 33.14707 | -96.71629 | 5970 ft | 215 kts | 207° |
| 2026-05-07 01:22 | 33.13343 | -96.72357 | 5968 ft | 215 kts | 206° |
| 2026-05-07 01:22 | 33.11976 | -96.73086 | 5969 ft | 215 kts | 207° |
| 2026-05-07 01:22 | 33.10602 | -96.73820 | 5971 ft | 215 kts | 206° |
| 2026-05-07 01:23 | 33.09233 | -96.74551 | 5972 ft | 215 kts | 207° |
| 2026-05-07 01:23 | 33.07868 | -96.75278 | 5970 ft | 215 kts | 207° |
| 2026-05-07 01:23 | 33.06493 | -96.76011 | 5966 ft | 215 kts | 207° |
| 2026-05-07 01:23 | 33.05128 | -96.76739 | 5966 ft | 215 kts | 207° |
| 2026-05-07 01:24 | 33.03762 | -96.77466 | 5966 ft | 215 kts | 207° |
| 2026-05-07 01:24 | 33.02378 | -96.78204 | 5967 ft | 215 kts | 207° |
| 2026-05-07 01:24 | 33.01021 | -96.78926 | 5966 ft | 215 kts | 207° |
| 2026-05-07 01:24 | 32.99639 | -96.79661 | 5966 ft | 215 kts | 207° |
| 2026-05-07 01:25 | 32.98288 | -96.80379 | 5966 ft | 215 kts | 207° |
| 2026-05-07 01:25 | 32.96914 | -96.81112 | 5966 ft | 215 kts | 207° |
| 2026-05-07 01:25 | 32.95532 | -96.81848 | 5823 ft | 218 kts | 207° |
| 2026-05-07 01:25 | 32.94161 | -96.82586 | 5577 ft | 215 kts | 207° |
| 2026-05-07 01:26 | 32.92794 | -96.83310 | 5332 ft | 213 kts | 206° |
| 2026-05-07 01:26 | 32.91445 | -96.84023 | 5087 ft | 211 kts | 206° |
| 2026-05-07 01:26 | 32.90093 | -96.84738 | 4840 ft | 211 kts | 206° |
| 2026-05-07 01:26 | 32.88750 | -96.85449 | 4589 ft | 211 kts | 206° |
| 2026-05-07 01:27 | 32.87406 | -96.86163 | 4341 ft | 212 kts | 206° |
| 2026-05-07 01:27 | 32.86057 | -96.86876 | 4087 ft | 212 kts | 206° |
| 2026-05-07 01:27 | 32.84702 | -96.87595 | 3837 ft | 213 kts | 205° |
| 2026-05-07 01:27 | 32.83350 | -96.88312 | 3588 ft | 214 kts | 205° |
| 2026-05-07 01:28 | 32.82014 | -96.89095 | 3335 ft | 215 kts | 212° |
| 2026-05-07 01:28 | 32.80720 | -96.90009 | 3083 ft | 216 kts | 212° |
| 2026-05-07 01:28 | 32.79429 | -96.90937 | 2831 ft | 217 kts | 213° |
| 2026-05-07 01:28 | 32.78197 | -96.91962 | 2684 ft | 214 kts | 217° |
| 2026-05-07 01:29 | 32.76991 | -96.93002 | 2562 ft | 212 kts | 217° |
| 2026-05-07 01:29 | 32.75805 | -96.94029 | 2434 ft | 210 kts | 217° |
| 2026-05-07 01:29 | 32.74630 | -96.95048 | 2310 ft | 210 kts | 217° |
| 2026-05-07 01:29 | 32.73454 | -96.96072 | 2194 ft | 208 kts | 218° |
| 2026-05-07 01:30 | 32.72399 | -96.97234 | 2169 ft | 202 kts | 226° |
| 2026-05-07 01:30 | 32.71439 | -96.98392 | 2110 ft | 194 kts | 228° |
| 2026-05-07 01:30 | 32.70556 | -96.99478 | 1782 ft | 168 kts | 229° |
| 2026-05-07 01:30 | 32.69809 | -97.00409 | 1530 ft | 144 kts | 228° |
| 2026-05-07 01:31 | 32.69188 | -97.01163 | 1410 ft | 116 kts | 230° |
| 2026-05-07 01:31 | 32.68655 | -97.01884 | 1298 ft | 111 kts | 232° |
| 2026-05-07 01:31 | 32.68355 | -97.02647 | 1256 ft | 103 kts | 267° |
| 2026-05-07 01:31 | 32.68296 | -97.03472 | 1034 ft | 103 kts | 273° |
| 2026-05-07 01:32 | 32.68451 | -97.04231 | 870 ft | 89 kts | 315° |
| 2026-05-07 01:32 | 32.68948 | -97.04642 | 715 ft | 88 kts | 345° |
| 2026-05-07 01:32 | 32.69521 | -97.04694 | 576 ft | 68 kts | 358° |
| 2026-05-07 01:32 | 32.69822 | -97.04692 | 581 ft | 19 kts | 1° |
| 2026-05-07 01:33 | 32.69934 | -97.04691 | 582 ft | 14 kts | 359° |
| 2026-05-07 01:33 | 32.70026 | -97.04691 | 582 ft | 11 kts | 1° |
| 2026-05-07 01:33 | 32.70081 | -97.04675 | 581 ft | 6 kts | 69° |
| 2026-05-07 01:33 | 32.70080 | -97.04617 | 581 ft | 6 kts | 111° |
| 2026-05-07 01:34 | 32.70037 | -97.04598 | 581 ft | 5 kts | 135° |
| 2026-05-07 01:34 | 32.70047 | -97.04572 | 581 ft | 4 kts | 356° |
| 2026-05-07 01:34 | 32.70082 | -97.04565 | 581 ft | 5 kts | 72° |
| 2026-05-07 01:34 | 32.70077 | -97.04552 | 581 ft | 2 kts | 193° |
| 2026-05-07 01:35 | 32.70070 | -97.04553 | 581 ft | 0 kts | 179° |
| 2026-05-07 01:35 | 32.70071 | -97.04553 | 581 ft | 0 kts | 179° |